sensor_id;sensor_type;location;lat;lon;timestamp;P1;durP1;ratioP1;P2;durP2;ratioP2
22070;SDS011;11200;51.488;6.668;2023-08-12T00:01:17;3.42;;;3.13;;
22070;SDS011;11200;51.488;6.668;2023-08-12T00:03:46;4.15;;;3.17;;
22070;SDS011;11200;51.488;6.668;2023-08-12T00:06:12;3.35;;;2.88;;
22070;SDS011;11200;51.488;6.668;2023-08-12T00:08:38;3.60;;;3.30;;
22070;SDS011;11200;51.488;6.668;2023-08-12T00:11:03;3.30;;;3.00;;
22070;SDS011;11200;51.488;6.668;2023-08-12T00:13:29;4.20;;;3.00;;
22070;SDS011;11200;51.488;6.668;2023-08-12T00:15:55;4.65;;;3.00;;
22070;SDS011;11200;51.488;6.668;2023-08-12T00:18:21;3.50;;;3.20;;
22070;SDS011;11200;51.488;6.668;2023-08-12T00:20:47;3.72;;;3.17;;
22070;SDS011;11200;51.488;6.668;2023-08-12T00:23:13;3.42;;;3.05;;
22070;SDS011;11200;51.488;6.668;2023-08-12T00:25:38;3.25;;;2.92;;
22070;SDS011;11200;51.488;6.668;2023-08-12T00:28:04;3.42;;;2.88;;
22070;SDS011;11200;51.488;6.668;2023-08-12T00:30:30;2.95;;;2.72;;
22070;SDS011;11200;51.488;6.668;2023-08-12T00:32:56;3.65;;;3.35;;
22070;SDS011;11200;51.488;6.668;2023-08-12T00:35:21;4.18;;;2.85;;
22070;SDS011;11200;51.488;6.668;2023-08-12T00:37:47;3.30;;;3.00;;
22070;SDS011;11200;51.488;6.668;2023-08-12T00:40:12;3.58;;;3.15;;
22070;SDS011;11200;51.488;6.668;2023-08-12T00:45:09;3.50;;;3.20;;
22070;SDS011;11200;51.488;6.668;2023-08-12T00:47:35;4.07;;;3.30;;
22070;SDS011;11200;51.488;6.668;2023-08-12T00:50:02;3.40;;;3.10;;
22070;SDS011;11200;51.488;6.668;2023-08-12T00:52:28;2.88;;;2.67;;
22070;SDS011;11200;51.488;6.668;2023-08-12T00:54:54;3.80;;;3.10;;
22070;SDS011;11200;51.488;6.668;2023-08-12T00:57:19;3.05;;;2.75;;
22070;SDS011;11200;51.488;6.668;2023-08-12T00:59:45;3.08;;;2.78;;
22070;SDS011;11200;51.488;6.668;2023-08-12T01:02:11;3.72;;;2.95;;
22070;SDS011;11200;51.488;6.668;2023-08-12T01:04:38;3.00;;;2.80;;
22070;SDS011;11200;51.488;6.668;2023-08-12T01:07:03;3.10;;;2.80;;
22070;SDS011;11200;51.488;6.668;2023-08-12T01:09:29;3.08;;;2.78;;
22070;SDS011;11200;51.488;6.668;2023-08-12T01:12:03;3.40;;;3.10;;
22070;SDS011;11200;51.488;6.668;2023-08-12T01:17:23;3.38;;;2.58;;
22070;SDS011;11200;51.488;6.668;2023-08-12T01:19:51;3.20;;;2.83;;
22070;SDS011;11200;51.488;6.668;2023-08-12T01:22:17;3.28;;;2.78;;
22070;SDS011;11200;51.488;6.668;2023-08-12T01:24:46;3.63;;;2.90;;
22070;SDS011;11200;51.488;6.668;2023-08-12T01:27:12;3.28;;;2.67;;
22070;SDS011;11200;51.488;6.668;2023-08-12T01:29:45;2.80;;;2.60;;
22070;SDS011;11200;51.488;6.668;2023-08-12T01:35:01;2.72;;;2.53;;
22070;SDS011;11200;51.488;6.668;2023-08-12T01:37:32;2.83;;;2.63;;
22070;SDS011;11200;51.488;6.668;2023-08-12T01:40:00;3.13;;;2.83;;
22070;SDS011;11200;51.488;6.668;2023-08-12T01:42:30;3.25;;;2.67;;
22070;SDS011;11200;51.488;6.668;2023-08-12T01:44:57;3.13;;;2.72;;
22070;SDS011;11200;51.488;6.668;2023-08-12T01:47:24;3.17;;;2.83;;
22070;SDS011;11200;51.488;6.668;2023-08-12T01:49:50;3.20;;;2.90;;
22070;SDS011;11200;51.488;6.668;2023-08-12T01:52:15;3.05;;;2.80;;
22070;SDS011;11200;51.488;6.668;2023-08-12T01:54:41;4.45;;;2.80;;
22070;SDS011;11200;51.488;6.668;2023-08-12T01:57:06;3.40;;;3.10;;
22070;SDS011;11200;51.488;6.668;2023-08-12T01:59:33;3.03;;;2.70;;
22070;SDS011;11200;51.488;6.668;2023-08-12T02:02:02;3.47;;;2.90;;
22070;SDS011;11200;51.488;6.668;2023-08-12T02:04:29;3.03;;;2.63;;
22070;SDS011;11200;51.488;6.668;2023-08-12T02:06:55;3.08;;;2.85;;
22070;SDS011;11200;51.488;6.668;2023-08-12T02:09:21;3.00;;;2.70;;
22070;SDS011;11200;51.488;6.668;2023-08-12T02:11:47;3.63;;;2.95;;
22070;SDS011;11200;51.488;6.668;2023-08-12T02:14:14;3.10;;;2.80;;
22070;SDS011;11200;51.488;6.668;2023-08-12T02:16:40;2.90;;;2.70;;
22070;SDS011;11200;51.488;6.668;2023-08-12T02:19:05;4.05;;;3.10;;
22070;SDS011;11200;51.488;6.668;2023-08-12T02:21:31;3.00;;;2.70;;
22070;SDS011;11200;51.488;6.668;2023-08-12T02:23:57;3.47;;;3.03;;
22070;SDS011;11200;51.488;6.668;2023-08-12T02:26:23;3.15;;;2.85;;
22070;SDS011;11200;51.488;6.668;2023-08-12T02:28:48;3.20;;;2.90;;
22070;SDS011;11200;51.488;6.668;2023-08-12T02:31:15;3.70;;;3.00;;
22070;SDS011;11200;51.488;6.668;2023-08-12T02:33:41;3.25;;;2.95;;
22070;SDS011;11200;51.488;6.668;2023-08-12T02:36:07;3.20;;;2.90;;
22070;SDS011;11200;51.488;6.668;2023-08-12T02:38:32;3.10;;;2.78;;
22070;SDS011;11200;51.488;6.668;2023-08-12T02:40:58;3.42;;;3.00;;
22070;SDS011;11200;51.488;6.668;2023-08-12T02:43:23;2.97;;;2.72;;
22070;SDS011;11200;51.488;6.668;2023-08-12T02:45:49;3.30;;;3.00;;
22070;SDS011;11200;51.488;6.668;2023-08-12T02:48:14;4.25;;;3.28;;
22070;SDS011;11200;51.488;6.668;2023-08-12T02:50:40;3.40;;;2.85;;
22070;SDS011;11200;51.488;6.668;2023-08-12T02:53:06;4.28;;;3.20;;
22070;SDS011;11200;51.488;6.668;2023-08-12T02:55:32;4.13;;;3.22;;
22070;SDS011;11200;51.488;6.668;2023-08-12T02:57:58;3.10;;;2.78;;
22070;SDS011;11200;51.488;6.668;2023-08-12T03:00:24;3.45;;;2.75;;
22070;SDS011;11200;51.488;6.668;2023-08-12T03:02:49;4.72;;;2.83;;
22070;SDS011;11200;51.488;6.668;2023-08-12T03:05:15;2.88;;;2.60;;
22070;SDS011;11200;51.488;6.668;2023-08-12T03:07:41;3.20;;;2.90;;
22070;SDS011;11200;51.488;6.668;2023-08-12T03:10:06;2.75;;;2.55;;
22070;SDS011;11200;51.488;6.668;2023-08-12T03:12:32;3.28;;;2.90;;
22070;SDS011;11200;51.488;6.668;2023-08-12T03:14:59;3.22;;;2.80;;
22070;SDS011;11200;51.488;6.668;2023-08-12T03:17:25;3.25;;;2.85;;
22070;SDS011;11200;51.488;6.668;2023-08-12T03:19:51;3.00;;;2.80;;
22070;SDS011;11200;51.488;6.668;2023-08-12T03:22:19;3.20;;;2.90;;
22070;SDS011;11200;51.488;6.668;2023-08-12T03:24:45;4.45;;;2.80;;
22070;SDS011;11200;51.488;6.668;2023-08-12T03:27:10;3.92;;;3.08;;
22070;SDS011;11200;51.488;6.668;2023-08-12T03:29:37;3.10;;;2.80;;
22070;SDS011;11200;51.488;6.668;2023-08-12T03:32:03;3.20;;;2.85;;
22070;SDS011;11200;51.488;6.668;2023-08-12T03:34:29;3.97;;;3.38;;
22070;SDS011;11200;51.488;6.668;2023-08-12T03:36:54;2.92;;;2.72;;
22070;SDS011;11200;51.488;6.668;2023-08-12T03:39:20;2.97;;;2.67;;
22070;SDS011;11200;51.488;6.668;2023-08-12T03:41:46;3.42;;;3.13;;
22070;SDS011;11200;51.488;6.668;2023-08-12T03:44:11;3.75;;;3.05;;
22070;SDS011;11200;51.488;6.668;2023-08-12T03:46:37;4.00;;;3.00;;
22070;SDS011;11200;51.488;6.668;2023-08-12T03:49:02;4.72;;;3.30;;
22070;SDS011;11200;51.488;6.668;2023-08-12T03:51:28;3.25;;;2.95;;
22070;SDS011;11200;51.488;6.668;2023-08-12T03:53:54;3.45;;;2.85;;
22070;SDS011;11200;51.488;6.668;2023-08-12T03:56:19;3.75;;;3.20;;
22070;SDS011;11200;51.488;6.668;2023-08-12T03:58:45;3.90;;;3.50;;
22070;SDS011;11200;51.488;6.668;2023-08-12T04:01:10;3.70;;;3.30;;
22070;SDS011;11200;51.488;6.668;2023-08-12T04:03:36;4.40;;;3.20;;
22070;SDS011;11200;51.488;6.668;2023-08-12T04:06:02;3.58;;;3.28;;
22070;SDS011;11200;51.488;6.668;2023-08-12T04:08:28;3.72;;;3.00;;
22070;SDS011;11200;51.488;6.668;2023-08-12T04:10:54;3.53;;;3.22;;
22070;SDS011;11200;51.488;6.668;2023-08-12T04:13:19;3.88;;;2.92;;
22070;SDS011;11200;51.488;6.668;2023-08-12T04:15:49;3.38;;;3.08;;
22070;SDS011;11200;51.488;6.668;2023-08-12T04:18:15;3.20;;;2.90;;
22070;SDS011;11200;51.488;6.668;2023-08-12T04:20:41;3.70;;;3.20;;
22070;SDS011;11200;51.488;6.668;2023-08-12T04:23:07;3.47;;;3.17;;
22070;SDS011;11200;51.488;6.668;2023-08-12T04:25:32;3.10;;;2.80;;
22070;SDS011;11200;51.488;6.668;2023-08-12T04:27:58;3.30;;;2.92;;
22070;SDS011;11200;51.488;6.668;2023-08-12T04:30:24;3.22;;;2.92;;
22070;SDS011;11200;51.488;6.668;2023-08-12T04:32:49;3.33;;;2.97;;
22070;SDS011;11200;51.488;6.668;2023-08-12T04:35:15;3.38;;;3.00;;
22070;SDS011;11200;51.488;6.668;2023-08-12T04:37:41;3.88;;;3.22;;
22070;SDS011;11200;51.488;6.668;2023-08-12T04:40:06;3.25;;;2.95;;
22070;SDS011;11200;51.488;6.668;2023-08-12T04:42:33;3.38;;;2.88;;
22070;SDS011;11200;51.488;6.668;2023-08-12T04:44:59;2.80;;;2.60;;
22070;SDS011;11200;51.488;6.668;2023-08-12T04:47:24;3.90;;;2.90;;
22070;SDS011;11200;51.488;6.668;2023-08-12T04:49:50;3.58;;;3.25;;
22070;SDS011;11200;51.488;6.668;2023-08-12T04:52:17;4.00;;;2.83;;
22070;SDS011;11200;51.488;6.668;2023-08-12T04:54:42;3.60;;;3.30;;
22070;SDS011;11200;51.488;6.668;2023-08-12T04:57:08;3.20;;;2.90;;
22070;SDS011;11200;51.488;6.668;2023-08-12T04:59:34;3.53;;;3.15;;
22070;SDS011;11200;51.488;6.668;2023-08-12T05:01:59;3.45;;;3.15;;
22070;SDS011;11200;51.488;6.668;2023-08-12T05:04:25;3.92;;;3.33;;
22070;SDS011;11200;51.488;6.668;2023-08-12T05:06:51;4.13;;;3.72;;
22070;SDS011;11200;51.488;6.668;2023-08-12T05:09:16;3.63;;;2.90;;
22070;SDS011;11200;51.488;6.668;2023-08-12T05:11:42;3.30;;;3.00;;
22070;SDS011;11200;51.488;6.668;2023-08-12T05:14:08;3.30;;;3.00;;
22070;SDS011;11200;51.488;6.668;2023-08-12T05:16:34;3.67;;;3.03;;
22070;SDS011;11200;51.488;6.668;2023-08-12T05:19:00;3.40;;;3.08;;
22070;SDS011;11200;51.488;6.668;2023-08-12T05:21:25;3.92;;;3.13;;
22070;SDS011;11200;51.488;6.668;2023-08-12T05:23:51;3.72;;;3.33;;
22070;SDS011;11200;51.488;6.668;2023-08-12T05:26:17;3.17;;;2.88;;
22070;SDS011;11200;51.488;6.668;2023-08-12T05:28:43;4.82;;;3.20;;
22070;SDS011;11200;51.488;6.668;2023-08-12T05:31:08;3.33;;;3.03;;
22070;SDS011;11200;51.488;6.668;2023-08-12T05:33:34;3.35;;;3.05;;
22070;SDS011;11200;51.488;6.668;2023-08-12T05:36:00;5.00;;;4.10;;
22070;SDS011;11200;51.488;6.668;2023-08-12T05:38:25;4.25;;;3.65;;
22070;SDS011;11200;51.488;6.668;2023-08-12T05:40:51;4.18;;;3.63;;
22070;SDS011;11200;51.488;6.668;2023-08-12T05:43:17;4.78;;;4.10;;
22070;SDS011;11200;51.488;6.668;2023-08-12T05:45:42;4.60;;;3.80;;
22070;SDS011;11200;51.488;6.668;2023-08-12T05:48:08;4.13;;;3.50;;
22070;SDS011;11200;51.488;6.668;2023-08-12T05:50:34;5.18;;;3.92;;
22070;SDS011;11200;51.488;6.668;2023-08-12T05:52:59;3.90;;;3.47;;
22070;SDS011;11200;51.488;6.668;2023-08-12T05:55:25;6.05;;;4.20;;
22070;SDS011;11200;51.488;6.668;2023-08-12T05:57:50;4.63;;;4.15;;
22070;SDS011;11200;51.488;6.668;2023-08-12T06:00:16;5.13;;;4.00;;
22070;SDS011;11200;51.488;6.668;2023-08-12T06:02:42;6.03;;;3.85;;
22070;SDS011;11200;51.488;6.668;2023-08-12T06:05:08;4.63;;;3.40;;
22070;SDS011;11200;51.488;6.668;2023-08-12T06:07:33;4.03;;;3.63;;
22070;SDS011;11200;51.488;6.668;2023-08-12T06:10:00;4.63;;;3.67;;
22070;SDS011;11200;51.488;6.668;2023-08-12T06:12:26;5.93;;;4.15;;
22070;SDS011;11200;51.488;6.668;2023-08-12T06:14:51;4.88;;;3.95;;
22070;SDS011;11200;51.488;6.668;2023-08-12T06:17:17;3.97;;;3.58;;
22070;SDS011;11200;51.488;6.668;2023-08-12T06:19:43;5.72;;;3.90;;
22070;SDS011;11200;51.488;6.668;2023-08-12T06:22:09;5.43;;;4.10;;
22070;SDS011;11200;51.488;6.668;2023-08-12T06:24:34;4.90;;;4.15;;
22070;SDS011;11200;51.488;6.668;2023-08-12T06:27:00;4.22;;;3.60;;
22070;SDS011;11200;51.488;6.668;2023-08-12T06:29:26;3.90;;;3.50;;
22070;SDS011;11200;51.488;6.668;2023-08-12T06:31:52;4.57;;;3.83;;
22070;SDS011;11200;51.488;6.668;2023-08-12T06:34:18;4.97;;;4.28;;
22070;SDS011;11200;51.488;6.668;2023-08-12T06:36:44;5.75;;;4.18;;
22070;SDS011;11200;51.488;6.668;2023-08-12T06:39:09;7.13;;;4.82;;
22070;SDS011;11200;51.488;6.668;2023-08-12T06:41:35;7.50;;;4.60;;
22070;SDS011;11200;51.488;6.668;2023-08-12T06:44:01;5.20;;;4.70;;
22070;SDS011;11200;51.488;6.668;2023-08-12T06:46:28;5.38;;;3.80;;
22070;SDS011;11200;51.488;6.668;2023-08-12T06:48:55;6.05;;;4.18;;
22070;SDS011;11200;51.488;6.668;2023-08-12T06:51:21;5.47;;;4.40;;
22070;SDS011;11200;51.488;6.668;2023-08-12T06:53:47;7.00;;;4.60;;
22070;SDS011;11200;51.488;6.668;2023-08-12T06:56:12;7.47;;;4.80;;
22070;SDS011;11200;51.488;6.668;2023-08-12T06:58:38;6.38;;;4.25;;
22070;SDS011;11200;51.488;6.668;2023-08-12T07:01:04;5.43;;;4.38;;
22070;SDS011;11200;51.488;6.668;2023-08-12T07:03:29;6.03;;;4.50;;
22070;SDS011;11200;51.488;6.668;2023-08-12T07:05:55;5.20;;;4.25;;
22070;SDS011;11200;51.488;6.668;2023-08-12T07:08:24;5.20;;;4.55;;
22070;SDS011;11200;51.488;6.668;2023-08-12T07:10:52;4.85;;;4.40;;
22070;SDS011;11200;51.488;6.668;2023-08-12T07:13:18;5.50;;;4.38;;
22070;SDS011;11200;51.488;6.668;2023-08-12T07:15:44;5.07;;;4.15;;
22070;SDS011;11200;51.488;6.668;2023-08-12T07:18:11;6.72;;;4.72;;
22070;SDS011;11200;51.488;6.668;2023-08-12T07:20:37;5.72;;;4.10;;
22070;SDS011;11200;51.488;6.668;2023-08-12T07:23:04;5.03;;;3.90;;
22070;SDS011;11200;51.488;6.668;2023-08-12T07:25:30;5.93;;;4.50;;
22070;SDS011;11200;51.488;6.668;2023-08-12T07:27:56;4.40;;;4.00;;
22070;SDS011;11200;51.488;6.668;2023-08-12T07:30:22;4.15;;;3.72;;
22070;SDS011;11200;51.488;6.668;2023-08-12T07:32:48;6.22;;;4.72;;
22070;SDS011;11200;51.488;6.668;2023-08-12T07:35:14;4.72;;;4.20;;
22070;SDS011;11200;51.488;6.668;2023-08-12T07:37:39;4.82;;;3.88;;
22070;SDS011;11200;51.488;6.668;2023-08-12T07:40:05;4.63;;;4.13;;
22070;SDS011;11200;51.488;6.668;2023-08-12T07:42:32;4.00;;;3.60;;
22070;SDS011;11200;51.488;6.668;2023-08-12T07:44:58;3.70;;;3.40;;
22070;SDS011;11200;51.488;6.668;2023-08-12T07:47:23;5.22;;;3.63;;
22070;SDS011;11200;51.488;6.668;2023-08-12T07:49:49;3.95;;;3.55;;
22070;SDS011;11200;51.488;6.668;2023-08-12T07:52:15;3.67;;;3.38;;
22070;SDS011;11200;51.488;6.668;2023-08-12T07:54:40;4.00;;;3.70;;
22070;SDS011;11200;51.488;6.668;2023-08-12T07:57:06;4.40;;;3.90;;
22070;SDS011;11200;51.488;6.668;2023-08-12T07:59:33;4.78;;;3.92;;
22070;SDS011;11200;51.488;6.668;2023-08-12T08:01:58;4.70;;;3.78;;
22070;SDS011;11200;51.488;6.668;2023-08-12T08:07:00;4.03;;;3.38;;
22070;SDS011;11200;51.488;6.668;2023-08-12T08:09:25;4.13;;;3.42;;
22070;SDS011;11200;51.488;6.668;2023-08-12T08:11:51;4.65;;;4.00;;
22070;SDS011;11200;51.488;6.668;2023-08-12T08:14:16;4.63;;;4.22;;
22070;SDS011;11200;51.488;6.668;2023-08-12T08:16:42;4.10;;;3.30;;
22070;SDS011;11200;51.488;6.668;2023-08-12T08:19:08;3.80;;;3.50;;
22070;SDS011;11200;51.488;6.668;2023-08-12T08:21:37;3.67;;;3.38;;
22070;SDS011;11200;51.488;6.668;2023-08-12T08:24:02;3.95;;;3.50;;
22070;SDS011;11200;51.488;6.668;2023-08-12T08:26:28;4.15;;;3.72;;
22070;SDS011;11200;51.488;6.668;2023-08-12T08:28:54;4.40;;;3.38;;
22070;SDS011;11200;51.488;6.668;2023-08-12T08:31:19;4.65;;;3.88;;
22070;SDS011;11200;51.488;6.668;2023-08-12T08:33:45;3.80;;;3.50;;
22070;SDS011;11200;51.488;6.668;2023-08-12T08:36:10;4.35;;;3.55;;
22070;SDS011;11200;51.488;6.668;2023-08-12T08:38:36;3.85;;;3.30;;
22070;SDS011;11200;51.488;6.668;2023-08-12T08:41:02;3.17;;;2.80;;
22070;SDS011;11200;51.488;6.668;2023-08-12T08:43:31;3.97;;;3.10;;
22070;SDS011;11200;51.488;6.668;2023-08-12T08:45:58;3.83;;;3.22;;
22070;SDS011;11200;51.488;6.668;2023-08-12T08:48:25;3.65;;;3.30;;
22070;SDS011;11200;51.488;6.668;2023-08-12T08:50:51;3.63;;;3.33;;
22070;SDS011;11200;51.488;6.668;2023-08-12T08:53:18;3.95;;;3.30;;
22070;SDS011;11200;51.488;6.668;2023-08-12T08:55:44;3.42;;;3.00;;
22070;SDS011;11200;51.488;6.668;2023-08-12T08:58:11;3.40;;;3.00;;
22070;SDS011;11200;51.488;6.668;2023-08-12T09:00:37;3.22;;;2.70;;
22070;SDS011;11200;51.488;6.668;2023-08-12T09:03:04;3.78;;;2.75;;
22070;SDS011;11200;51.488;6.668;2023-08-12T09:05:31;3.20;;;2.90;;
22070;SDS011;11200;51.488;6.668;2023-08-12T09:07:59;3.15;;;2.83;;
22070;SDS011;11200;51.488;6.668;2023-08-12T09:10:26;3.22;;;2.92;;
22070;SDS011;11200;51.488;6.668;2023-08-12T09:12:56;3.03;;;2.72;;
22070;SDS011;11200;51.488;6.668;2023-08-12T09:15:22;4.30;;;2.53;;
22070;SDS011;11200;51.488;6.668;2023-08-12T09:17:47;3.53;;;2.85;;
22070;SDS011;11200;51.488;6.668;2023-08-12T09:20:13;2.58;;;2.38;;
22070;SDS011;11200;51.488;6.668;2023-08-12T09:22:42;2.67;;;2.47;;
22070;SDS011;11200;51.488;6.668;2023-08-12T09:25:09;4.35;;;2.95;;
22070;SDS011;11200;51.488;6.668;2023-08-12T09:27:38;3.45;;;2.47;;
22070;SDS011;11200;51.488;6.668;2023-08-12T09:30:04;3.33;;;3.00;;
22070;SDS011;11200;51.488;6.668;2023-08-12T09:32:30;2.40;;;2.20;;
22070;SDS011;11200;51.488;6.668;2023-08-12T09:34:56;2.75;;;2.42;;
22070;SDS011;11200;51.488;6.668;2023-08-12T09:37:22;2.67;;;2.20;;
22070;SDS011;11200;51.488;6.668;2023-08-12T09:39:51;2.88;;;2.50;;
22070;SDS011;11200;51.488;6.668;2023-08-12T09:42:17;2.55;;;2.33;;
22070;SDS011;11200;51.488;6.668;2023-08-12T09:44:44;3.45;;;2.38;;
22070;SDS011;11200;51.488;6.668;2023-08-12T09:47:10;2.25;;;2.08;;
22070;SDS011;11200;51.488;6.668;2023-08-12T09:49:36;2.47;;;2.28;;
22070;SDS011;11200;51.488;6.668;2023-08-12T09:52:03;2.28;;;2.08;;
22070;SDS011;11200;51.488;6.668;2023-08-12T09:54:33;2.92;;;2.30;;
22070;SDS011;11200;51.488;6.668;2023-08-12T09:57:02;2.42;;;2.22;;
22070;SDS011;11200;51.488;6.668;2023-08-12T09:59:31;3.03;;;2.00;;
22070;SDS011;11200;51.488;6.668;2023-08-12T10:01:59;2.38;;;1.95;;
22070;SDS011;11200;51.488;6.668;2023-08-12T10:04:29;2.50;;;2.30;;
22070;SDS011;11200;51.488;6.668;2023-08-12T10:07:02;2.20;;;2.00;;
22070;SDS011;11200;51.488;6.668;2023-08-12T10:09:29;2.10;;;1.90;;
22070;SDS011;11200;51.488;6.668;2023-08-12T10:11:56;2.22;;;2.03;;
22070;SDS011;11200;51.488;6.668;2023-08-12T10:14:23;2.17;;;1.70;;
22070;SDS011;11200;51.488;6.668;2023-08-12T10:16:50;3.42;;;1.80;;
22070;SDS011;11200;51.488;6.668;2023-08-12T10:19:17;2.13;;;1.92;;
22070;SDS011;11200;51.488;6.668;2023-08-12T10:21:46;3.33;;;1.98;;
22070;SDS011;11200;51.488;6.668;2023-08-12T10:24:14;2.60;;;1.88;;
22070;SDS011;11200;51.488;6.668;2023-08-12T10:26:42;2.00;;;1.88;;
22070;SDS011;11200;51.488;6.668;2023-08-12T10:29:08;1.95;;;1.65;;
22070;SDS011;11200;51.488;6.668;2023-08-12T10:31:34;2.55;;;1.73;;
22070;SDS011;11200;51.488;6.668;2023-08-12T10:34:03;2.10;;;1.85;;
22070;SDS011;11200;51.488;6.668;2023-08-12T10:36:28;2.35;;;1.80;;
22070;SDS011;11200;51.488;6.668;2023-08-12T10:38:56;2.10;;;1.83;;
22070;SDS011;11200;51.488;6.668;2023-08-12T10:41:25;1.63;;;1.52;;
22070;SDS011;11200;51.488;6.668;2023-08-12T10:46:23;1.70;;;1.60;;
22070;SDS011;11200;51.488;6.668;2023-08-12T10:49:04;1.95;;;1.73;;
22070;SDS011;11200;51.488;6.668;2023-08-12T10:51:42;2.05;;;1.88;;
22070;SDS011;11200;51.488;6.668;2023-08-12T10:54:13;1.92;;;1.73;;
22070;SDS011;11200;51.488;6.668;2023-08-12T11:04:43;1.60;;;1.50;;
22070;SDS011;11200;51.488;6.668;2023-08-12T11:07:18;1.65;;;1.55;;
22070;SDS011;11200;51.488;6.668;2023-08-12T11:09:58;1.60;;;1.50;;
22070;SDS011;11200;51.488;6.668;2023-08-12T11:12:32;1.73;;;1.63;;
22070;SDS011;11200;51.488;6.668;2023-08-12T11:15:01;2.88;;;1.70;;
22070;SDS011;11200;51.488;6.668;2023-08-12T11:17:36;1.55;;;1.40;;
22070;SDS011;11200;51.488;6.668;2023-08-12T11:20:07;1.60;;;1.50;;
22070;SDS011;11200;51.488;6.668;2023-08-12T11:22:41;1.52;;;1.42;;
22070;SDS011;11200;51.488;6.668;2023-08-12T11:25:12;2.42;;;1.40;;
22070;SDS011;11200;51.488;6.668;2023-08-12T11:27:40;2.67;;;1.42;;
22070;SDS011;11200;51.488;6.668;2023-08-12T11:30:10;1.83;;;1.33;;
22070;SDS011;11200;51.488;6.668;2023-08-12T11:32:40;1.83;;;1.52;;
22070;SDS011;11200;51.488;6.668;2023-08-12T11:35:08;1.60;;;1.50;;
22070;SDS011;11200;51.488;6.668;2023-08-12T11:37:36;1.83;;;1.65;;
22070;SDS011;11200;51.488;6.668;2023-08-12T11:40:03;1.60;;;1.50;;
22070;SDS011;11200;51.488;6.668;2023-08-12T11:42:30;2.10;;;1.48;;
22070;SDS011;11200;51.488;6.668;2023-08-12T11:44:56;1.73;;;1.45;;
22070;SDS011;11200;51.488;6.668;2023-08-12T11:47:22;1.70;;;1.60;;
22070;SDS011;11200;51.488;6.668;2023-08-12T11:49:47;1.70;;;1.60;;
22070;SDS011;11200;51.488;6.668;2023-08-12T11:52:13;2.60;;;1.50;;
22070;SDS011;11200;51.488;6.668;2023-08-12T11:54:39;1.70;;;1.48;;
22070;SDS011;11200;51.488;6.668;2023-08-12T11:57:05;1.98;;;1.55;;
22070;SDS011;11200;51.488;6.668;2023-08-12T11:59:31;1.48;;;1.38;;
22070;SDS011;11200;51.488;6.668;2023-08-12T12:01:57;1.67;;;1.58;;
22070;SDS011;11200;51.488;6.668;2023-08-12T12:04:22;1.85;;;1.75;;
22070;SDS011;11200;51.488;6.668;2023-08-12T12:06:49;1.70;;;1.60;;
22070;SDS011;11200;51.488;6.668;2023-08-12T12:09:14;2.25;;;1.50;;
22070;SDS011;11200;51.488;6.668;2023-08-12T12:11:43;1.60;;;1.50;;
22070;SDS011;11200;51.488;6.668;2023-08-12T12:14:10;2.08;;;1.65;;
22070;SDS011;11200;51.488;6.668;2023-08-12T12:16:40;2.03;;;1.83;;
22070;SDS011;11200;51.488;6.668;2023-08-12T12:19:19;1.77;;;1.67;;
22070;SDS011;11200;51.488;6.668;2023-08-12T12:21:47;1.63;;;1.52;;
22070;SDS011;11200;51.488;6.668;2023-08-12T12:24:15;2.50;;;1.75;;
22070;SDS011;11200;51.488;6.668;2023-08-12T12:26:41;2.08;;;1.90;;
22070;SDS011;11200;51.488;6.668;2023-08-12T12:29:07;2.17;;;1.60;;
22070;SDS011;11200;51.488;6.668;2023-08-12T12:31:33;2.15;;;1.73;;
22070;SDS011;11200;51.488;6.668;2023-08-12T12:34:04;2.20;;;2.00;;
22070;SDS011;11200;51.488;6.668;2023-08-12T12:36:51;2.00;;;1.90;;
22070;SDS011;11200;51.488;6.668;2023-08-12T12:39:16;2.00;;;1.90;;
22070;SDS011;11200;51.488;6.668;2023-08-12T12:41:42;1.77;;;1.67;;
22070;SDS011;11200;51.488;6.668;2023-08-12T12:44:10;1.98;;;1.77;;
22070;SDS011;11200;51.488;6.668;2023-08-12T12:46:36;2.10;;;1.95;;
22070;SDS011;11200;51.488;6.668;2023-08-12T12:49:01;2.05;;;1.90;;
22070;SDS011;11200;51.488;6.668;2023-08-12T12:51:27;1.58;;;1.48;;
22070;SDS011;11200;51.488;6.668;2023-08-12T12:53:56;2.03;;;1.83;;
22070;SDS011;11200;51.488;6.668;2023-08-12T12:56:22;1.90;;;1.70;;
22070;SDS011;11200;51.488;6.668;2023-08-12T12:58:47;1.73;;;1.63;;
22070;SDS011;11200;51.488;6.668;2023-08-12T13:01:13;2.22;;;1.60;;
22070;SDS011;11200;51.488;6.668;2023-08-12T13:03:42;1.75;;;1.65;;
22070;SDS011;11200;51.488;6.668;2023-08-12T13:06:08;1.83;;;1.67;;
22070;SDS011;11200;51.488;6.668;2023-08-12T13:08:34;2.40;;;2.17;;
22070;SDS011;11200;51.488;6.668;2023-08-12T13:10:59;1.83;;;1.73;;
22070;SDS011;11200;51.488;6.668;2023-08-12T13:13:26;2.17;;;1.98;;
22070;SDS011;11200;51.488;6.668;2023-08-12T13:15:51;2.00;;;1.90;;
22070;SDS011;11200;51.488;6.668;2023-08-12T13:18:17;1.85;;;1.75;;
22070;SDS011;11200;51.488;6.668;2023-08-12T13:20:42;1.85;;;1.75;;
22070;SDS011;11200;51.488;6.668;2023-08-12T13:23:08;2.05;;;1.90;;
22070;SDS011;11200;51.488;6.668;2023-08-12T13:25:34;1.75;;;1.65;;
22070;SDS011;11200;51.488;6.668;2023-08-12T13:28:00;2.28;;;2.08;;
22070;SDS011;11200;51.488;6.668;2023-08-12T13:30:27;1.80;;;1.70;;
22070;SDS011;11200;51.488;6.668;2023-08-12T13:32:53;1.83;;;1.73;;
22070;SDS011;11200;51.488;6.668;2023-08-12T13:35:20;2.53;;;2.00;;
22070;SDS011;11200;51.488;6.668;2023-08-12T13:37:46;3.55;;;1.70;;
22070;SDS011;11200;51.488;6.668;2023-08-12T13:40:11;2.00;;;1.80;;
22070;SDS011;11200;51.488;6.668;2023-08-12T13:42:37;2.53;;;1.80;;
22070;SDS011;11200;51.488;6.668;2023-08-12T13:45:03;1.88;;;1.70;;
22070;SDS011;11200;51.488;6.668;2023-08-12T13:47:30;1.85;;;1.75;;
22070;SDS011;11200;51.488;6.668;2023-08-12T13:49:55;2.15;;;1.90;;
22070;SDS011;11200;51.488;6.668;2023-08-12T13:52:21;1.80;;;1.70;;
22070;SDS011;11200;51.488;6.668;2023-08-12T13:54:50;1.85;;;1.70;;
22070;SDS011;11200;51.488;6.668;2023-08-12T13:57:16;2.03;;;1.83;;
22070;SDS011;11200;51.488;6.668;2023-08-12T13:59:41;2.50;;;1.77;;
22070;SDS011;11200;51.488;6.668;2023-08-12T14:02:09;2.15;;;1.85;;
22070;SDS011;11200;51.488;6.668;2023-08-12T14:04:44;1.70;;;1.60;;
22070;SDS011;11200;51.488;6.668;2023-08-12T14:07:09;1.80;;;1.70;;
22070;SDS011;11200;51.488;6.668;2023-08-12T14:09:37;1.73;;;1.63;;
22070;SDS011;11200;51.488;6.668;2023-08-12T14:12:03;1.83;;;1.67;;
22070;SDS011;11200;51.488;6.668;2023-08-12T14:14:29;1.60;;;1.50;;
22070;SDS011;11200;51.488;6.668;2023-08-12T14:16:55;1.60;;;1.50;;
22070;SDS011;11200;51.488;6.668;2023-08-12T14:19:21;1.98;;;1.77;;
22070;SDS011;11200;51.488;6.668;2023-08-12T14:21:49;1.80;;;1.70;;
22070;SDS011;11200;51.488;6.668;2023-08-12T14:24:17;1.83;;;1.63;;
22070;SDS011;11200;51.488;6.668;2023-08-12T14:26:55;1.70;;;1.60;;
22070;SDS011;11200;51.488;6.668;2023-08-12T14:31:56;2.22;;;1.60;;
22070;SDS011;11200;51.488;6.668;2023-08-12T14:34:21;2.42;;;1.88;;
22070;SDS011;11200;51.488;6.668;2023-08-12T14:36:47;1.75;;;1.60;;
22070;SDS011;11200;51.488;6.668;2023-08-12T14:39:13;1.52;;;1.40;;
22070;SDS011;11200;51.488;6.668;2023-08-12T14:41:38;1.70;;;1.52;;
22070;SDS011;11200;51.488;6.668;2023-08-12T14:44:04;2.53;;;1.67;;
22070;SDS011;11200;51.488;6.668;2023-08-12T14:46:29;1.60;;;1.50;;
22070;SDS011;11200;51.488;6.668;2023-08-12T14:48:55;1.42;;;1.33;;
22070;SDS011;11200;51.488;6.668;2023-08-12T14:51:21;1.50;;;1.40;;
22070;SDS011;11200;51.488;6.668;2023-08-12T14:53:47;2.42;;;1.50;;
22070;SDS011;11200;51.488;6.668;2023-08-12T14:56:14;2.08;;;1.50;;
22070;SDS011;11200;51.488;6.668;2023-08-12T14:58:40;2.33;;;1.80;;
22070;SDS011;11200;51.488;6.668;2023-08-12T15:01:05;1.50;;;1.40;;
22070;SDS011;11200;51.488;6.668;2023-08-12T15:03:31;2.78;;;1.42;;
22070;SDS011;11200;51.488;6.668;2023-08-12T15:06:01;2.17;;;1.55;;
22070;SDS011;11200;51.488;6.668;2023-08-12T15:08:28;2.03;;;1.50;;